VJC423 VVTS-VVNB
Flight info
| Callsign | VJC423 |
|---|---|
| Flight time | 1h 48m |
| Altitude | 35000 |
| Route | PATMA5G PATMA Q2 BIVIM BISON3F |
| Aircraft | A321/M-SDE3FGHIRWY/LB1 |
Departure
| Time | 2026-05-05 14:45 |
|---|---|
| Airport | Tan Son Nhat International Airport (VVTS) |
Arrival
| Time | 2026-05-05 16:33 |
|---|---|
| Airport | Noi Bai International Airport (VVNB) |
| Time | Latitude | Longitude | Altitude | Speed | Heading |
|---|---|---|---|---|---|
| 2026-05-05 14:12 | 10.81782 | 106.66438 | 29 ft | 0 kts | 159° |
| 2026-05-05 14:33 | 10.81783 | 106.66438 | 29 ft | 1 kts | 159° |
| 2026-05-05 14:33 | 10.81796 | 106.66432 | 29 ft | 2 kts | 159° |
| 2026-05-05 14:33 | 10.81811 | 106.66427 | 29 ft | 2 kts | 159° |
| 2026-05-05 14:33 | 10.81825 | 106.66421 | 29 ft | 2 kts | 159° |
| 2026-05-05 14:34 | 10.81838 | 106.66416 | 28 ft | 1 kts | 159° |
| 2026-05-05 14:34 | 10.81848 | 106.66412 | 28 ft | 2 kts | 145° |
| 2026-05-05 14:34 | 10.81859 | 106.66401 | 28 ft | 2 kts | 119° |
| 2026-05-05 14:34 | 10.81864 | 106.66386 | 28 ft | 2 kts | 94° |
| 2026-05-05 14:35 | 10.81862 | 106.66373 | 28 ft | 0 kts | 72° |
| 2026-05-05 14:35 | 10.81860 | 106.66367 | 28 ft | 1 kts | 68° |
| 2026-05-05 14:35 | 10.81860 | 106.66366 | 28 ft | 0 kts | 69° |
| 2026-05-05 14:39 | 10.81860 | 106.66367 | 28 ft | 0 kts | 69° |
| 2026-05-05 14:39 | 10.81865 | 106.66379 | 28 ft | 2 kts | 69° |
| 2026-05-05 14:39 | 10.81875 | 106.66407 | 28 ft | 5 kts | 69° |
| 2026-05-05 14:39 | 10.81891 | 106.66450 | 28 ft | 7 kts | 69° |
| 2026-05-05 14:40 | 10.81913 | 106.66509 | 29 ft | 9 kts | 69° |
| 2026-05-05 14:40 | 10.81939 | 106.66577 | 30 ft | 10 kts | 69° |
| 2026-05-05 14:40 | 10.81970 | 106.66658 | 29 ft | 13 kts | 69° |
| 2026-05-05 14:40 | 10.82005 | 106.66750 | 30 ft | 14 kts | 69° |
| 2026-05-05 14:41 | 10.82040 | 106.66843 | 32 ft | 14 kts | 68° |
| 2026-05-05 14:41 | 10.82101 | 106.66921 | 33 ft | 14 kts | 39° |
| 2026-05-05 14:41 | 10.82181 | 106.66985 | 35 ft | 14 kts | 39° |
| 2026-05-05 14:41 | 10.82258 | 106.67005 | 35 ft | 3 kts | 340° |
| 2026-05-05 14:42 | 10.82258 | 106.67004 | 35 ft | 0 kts | 340° |
| 2026-05-05 14:42 | 10.82260 | 106.67004 | 35 ft | 0 kts | 340° |
| 2026-05-05 14:42 | 10.82269 | 106.67001 | 35 ft | 1 kts | 340° |
| 2026-05-05 14:42 | 10.82286 | 106.66994 | 35 ft | 3 kts | 340° |
| 2026-05-05 14:43 | 10.82311 | 106.66979 | 34 ft | 5 kts | 322° |
| 2026-05-05 14:43 | 10.82344 | 106.66956 | 34 ft | 6 kts | 335° |
| 2026-05-05 14:43 | 10.82357 | 106.66917 | 34 ft | 7 kts | 259° |
| 2026-05-05 14:43 | 10.82353 | 106.66904 | 33 ft | 0 kts | 250° |
| 2026-05-05 14:44 | 10.82343 | 106.66878 | 33 ft | 22 kts | 249° |
| 2026-05-05 14:44 | 10.82192 | 106.66478 | 32 ft | 94 kts | 250° |
| 2026-05-05 14:44 | 10.81882 | 106.65655 | 29 ft | 154 kts | 249° |
| 2026-05-05 14:44 | 10.81443 | 106.64503 | 309 ft | 179 kts | 249° |
| 2026-05-05 14:45 | 10.81002 | 106.63337 | 888 ft | 182 kts | 249° |
| 2026-05-05 14:45 | 10.80561 | 106.62141 | 1515 ft | 184 kts | 247° |
| 2026-05-05 14:45 | 10.80099 | 106.60892 | 2044 ft | 192 kts | 246° |
| 2026-05-05 14:45 | 10.79611 | 106.59596 | 2400 ft | 206 kts | 246° |
| 2026-05-05 14:46 | 10.79070 | 106.58162 | 2731 ft | 222 kts | 247° |
| 2026-05-05 14:46 | 10.78803 | 106.56557 | 3021 ft | 242 kts | 277° |
| 2026-05-05 14:46 | 10.79554 | 106.54985 | 3261 ft | 259 kts | 319° |
| 2026-05-05 14:46 | 10.81147 | 106.54125 | 3598 ft | 267 kts | 354° |
| 2026-05-05 14:47 | 10.83010 | 106.54158 | 4142 ft | 270 kts | 8° |
| 2026-05-05 14:47 | 10.84872 | 106.54323 | 4787 ft | 272 kts | 7° |
| 2026-05-05 14:47 | 10.86767 | 106.54494 | 5509 ft | 273 kts | 7° |
| 2026-05-05 14:47 | 10.88658 | 106.54681 | 6223 ft | 273 kts | 7° |
| 2026-05-05 14:48 | 10.90577 | 106.54884 | 6893 ft | 275 kts | 7° |
| 2026-05-05 14:48 | 10.92510 | 106.55089 | 7504 ft | 279 kts | 7° |
| 2026-05-05 14:48 | 10.94440 | 106.55286 | 8113 ft | 281 kts | 7° |
| 2026-05-05 14:48 | 10.96370 | 106.55579 | 8695 ft | 282 kts | 19° |
| 2026-05-05 14:49 | 10.98058 | 106.56574 | 9249 ft | 282 kts | 45° |
| 2026-05-05 14:49 | 10.99319 | 106.58105 | 9852 ft | 283 kts | 54° |
| 2026-05-05 14:49 | 11.00491 | 106.59742 | 10344 ft | 288 kts | 54° |
| 2026-05-05 14:49 | 11.01694 | 106.61401 | 10597 ft | 302 kts | 54° |
| 2026-05-05 14:50 | 11.02991 | 106.63151 | 10840 ft | 316 kts | 53° |
| 2026-05-05 14:50 | 11.04356 | 106.64963 | 11071 ft | 329 kts | 53° |
| 2026-05-05 14:50 | 11.05783 | 106.66841 | 11293 ft | 341 kts | 53° |
| 2026-05-05 14:50 | 11.07286 | 106.68810 | 11503 ft | 354 kts | 53° |
| 2026-05-05 14:51 | 11.08823 | 106.70819 | 11707 ft | 365 kts | 53° |
| 2026-05-05 14:51 | 11.10380 | 106.72850 | 11913 ft | 375 kts | 53° |
| 2026-05-05 14:51 | 11.12023 | 106.74995 | 12269 ft | 380 kts | 53° |
| 2026-05-05 14:51 | 11.13659 | 106.77129 | 12678 ft | 383 kts | 53° |
| 2026-05-05 14:52 | 11.15278 | 106.79240 | 13102 ft | 385 kts | 53° |
| 2026-05-05 14:52 | 11.16949 | 106.81421 | 13502 ft | 387 kts | 53° |
| 2026-05-05 14:52 | 11.18605 | 106.83580 | 13904 ft | 389 kts | 53° |
| 2026-05-05 14:52 | 11.20273 | 106.85757 | 14285 ft | 392 kts | 53° |
| 2026-05-05 14:53 | 11.21959 | 106.87960 | 14647 ft | 395 kts | 53° |
| 2026-05-05 14:53 | 11.23651 | 106.90171 | 15016 ft | 397 kts | 53° |
| 2026-05-05 14:53 | 11.25361 | 106.92407 | 15381 ft | 400 kts | 53° |
| 2026-05-05 14:53 | 11.27065 | 106.94637 | 15731 ft | 402 kts | 53° |
| 2026-05-05 14:54 | 11.28793 | 106.96897 | 16052 ft | 405 kts | 53° |
| 2026-05-05 14:54 | 11.30534 | 106.99174 | 16389 ft | 407 kts | 53° |
| 2026-05-05 14:54 | 11.32271 | 107.01444 | 16716 ft | 409 kts | 53° |
| 2026-05-05 14:54 | 11.34045 | 107.03706 | 17024 ft | 412 kts | 51° |
| 2026-05-05 14:55 | 11.36024 | 107.05859 | 17324 ft | 415 kts | 45° |
| 2026-05-05 14:55 | 11.38180 | 107.07819 | 17633 ft | 418 kts | 40° |
| 2026-05-05 14:55 | 11.40501 | 107.09647 | 17935 ft | 420 kts | 38° |
| 2026-05-05 14:55 | 11.42857 | 107.11444 | 18255 ft | 421 kts | 38° |
| 2026-05-05 14:56 | 11.45201 | 107.13223 | 18549 ft | 423 kts | 38° |
| 2026-05-05 14:56 | 11.47572 | 107.15023 | 18832 ft | 424 kts | 38° |
| 2026-05-05 14:56 | 11.49934 | 107.16821 | 19109 ft | 426 kts | 38° |
| 2026-05-05 14:56 | 11.52336 | 107.18653 | 19375 ft | 427 kts | 38° |
| 2026-05-05 14:57 | 11.54719 | 107.20472 | 19611 ft | 430 kts | 38° |
| 2026-05-05 14:57 | 11.57105 | 107.22295 | 19846 ft | 432 kts | 38° |
| 2026-05-05 14:57 | 11.59524 | 107.24143 | 20111 ft | 433 kts | 37° |
| 2026-05-05 14:57 | 11.61954 | 107.26001 | 20372 ft | 434 kts | 37° |
| 2026-05-05 14:58 | 11.64360 | 107.27841 | 20624 ft | 435 kts | 38° |
| 2026-05-05 14:58 | 11.66795 | 107.29703 | 20888 ft | 436 kts | 37° |
| 2026-05-05 14:58 | 11.69231 | 107.31567 | 21134 ft | 437 kts | 37° |
| 2026-05-05 14:58 | 11.71666 | 107.33432 | 21367 ft | 438 kts | 37° |
| 2026-05-05 14:59 | 11.74119 | 107.35310 | 21606 ft | 439 kts | 37° |
| 2026-05-05 14:59 | 11.76570 | 107.37187 | 21841 ft | 440 kts | 37° |
| 2026-05-05 14:59 | 11.79041 | 107.39080 | 22083 ft | 441 kts | 37° |
| 2026-05-05 14:59 | 11.81495 | 107.40961 | 22298 ft | 442 kts | 37° |
| 2026-05-05 15:00 | 11.83958 | 107.42848 | 22507 ft | 444 kts | 37° |
| 2026-05-05 15:00 | 11.85603 | 107.44109 | 22636 ft | 445 kts | 37° |
| 2026-05-05 15:00 | 11.88923 | 107.46653 | 22914 ft | 447 kts | 37° |
| 2026-05-05 15:00 | 11.91419 | 107.48566 | 23103 ft | 449 kts | 37° |
| 2026-05-05 15:01 | 11.93934 | 107.50494 | 23291 ft | 450 kts | 37° |
| 2026-05-05 15:01 | 11.96466 | 107.52437 | 23486 ft | 452 kts | 37° |
| 2026-05-05 15:01 | 11.98990 | 107.54376 | 23691 ft | 454 kts | 37° |
| 2026-05-05 15:01 | 12.01519 | 107.56317 | 23890 ft | 455 kts | 37° |
| 2026-05-05 15:02 | 12.04057 | 107.58266 | 24089 ft | 457 kts | 37° |
| 2026-05-05 15:02 | 12.06622 | 107.60236 | 24292 ft | 458 kts | 37° |
| 2026-05-05 15:02 | 12.09185 | 107.62206 | 24489 ft | 459 kts | 37° |
| 2026-05-05 15:02 | 12.11774 | 107.64195 | 24679 ft | 461 kts | 37° |
| 2026-05-05 15:03 | 12.14354 | 107.66179 | 24868 ft | 462 kts | 37° |
| 2026-05-05 15:03 | 12.16958 | 107.68179 | 25057 ft | 464 kts | 37° |
| 2026-05-05 15:03 | 12.19523 | 107.70152 | 25238 ft | 466 kts | 37° |
| 2026-05-05 15:03 | 12.22144 | 107.72169 | 25433 ft | 467 kts | 37° |
| 2026-05-05 15:04 | 12.24752 | 107.74175 | 25654 ft | 468 kts | 37° |
| 2026-05-05 15:04 | 12.27373 | 107.76193 | 25928 ft | 467 kts | 37° |
| 2026-05-05 15:04 | 12.29979 | 107.78181 | 26209 ft | 466 kts | 35° |
| 2026-05-05 15:04 | 12.32796 | 107.79795 | 26430 ft | 466 kts | 23° |
| 2026-05-05 15:05 | 12.39121 | 107.81193 | 26972 ft | 463 kts | 2° |
| 2026-05-05 15:05 | 12.42385 | 107.81281 | 27284 ft | 462 kts | 1° |
| 2026-05-05 15:05 | 12.45627 | 107.81331 | 27557 ft | 461 kts | 0° |
| 2026-05-05 15:06 | 12.48819 | 107.81375 | 27819 ft | 461 kts | 0° |
| 2026-05-05 15:06 | 12.52060 | 107.81425 | 28095 ft | 461 kts | 0° |
| 2026-05-05 15:06 | 12.55274 | 107.81479 | 28393 ft | 459 kts | 1° |
| 2026-05-05 15:06 | 12.58442 | 107.81535 | 28695 ft | 458 kts | 1° |
| 2026-05-05 15:07 | 12.61648 | 107.81596 | 29007 ft | 457 kts | 1° |
| 2026-05-05 15:07 | 12.64848 | 107.81657 | 29316 ft | 456 kts | 1° |
| 2026-05-05 15:07 | 12.68033 | 107.81719 | 29602 ft | 455 kts | 1° |
| 2026-05-05 15:07 | 12.71169 | 107.81781 | 29877 ft | 455 kts | 1° |
| 2026-05-05 15:08 | 12.74338 | 107.81843 | 30150 ft | 455 kts | 0° |
| 2026-05-05 15:08 | 12.77521 | 107.81906 | 30420 ft | 455 kts | 0° |
| 2026-05-05 15:08 | 12.80723 | 107.81969 | 30677 ft | 455 kts | 0° |
| 2026-05-05 15:08 | 12.83884 | 107.82032 | 30927 ft | 455 kts | 0° |
| 2026-05-05 15:09 | 12.87090 | 107.82095 | 31182 ft | 456 kts | 0° |
| 2026-05-05 15:09 | 12.90265 | 107.82158 | 31428 ft | 456 kts | 0° |
| 2026-05-05 15:09 | 12.93438 | 107.82220 | 31673 ft | 456 kts | 0° |
| 2026-05-05 15:09 | 12.96635 | 107.82282 | 31922 ft | 457 kts | 0° |
| 2026-05-05 15:10 | 12.99827 | 107.82346 | 32173 ft | 457 kts | 0° |
| 2026-05-05 15:10 | 13.03014 | 107.82409 | 32434 ft | 457 kts | 0° |
| 2026-05-05 15:10 | 13.06185 | 107.82471 | 32709 ft | 457 kts | 0° |
| 2026-05-05 15:10 | 13.09372 | 107.82535 | 33027 ft | 456 kts | 0° |
| 2026-05-05 15:11 | 13.12541 | 107.82598 | 33367 ft | 454 kts | 360° |
| 2026-05-05 15:11 | 13.15743 | 107.82660 | 33665 ft | 454 kts | 360° |
| 2026-05-05 15:11 | 13.18895 | 107.82722 | 33904 ft | 455 kts | 360° |
| 2026-05-05 15:11 | 13.22080 | 107.82783 | 34131 ft | 456 kts | 360° |
| 2026-05-05 15:12 | 13.25267 | 107.82845 | 34355 ft | 456 kts | 360° |
| 2026-05-05 15:12 | 13.28499 | 107.82909 | 34575 ft | 457 kts | 359° |
| 2026-05-05 15:12 | 13.31695 | 107.82973 | 34792 ft | 458 kts | 359° |
| 2026-05-05 15:12 | 13.34864 | 107.83038 | 34936 ft | 459 kts | 359° |
| 2026-05-05 15:13 | 13.38086 | 107.83107 | 34939 ft | 460 kts | 359° |
| 2026-05-05 15:13 | 13.44505 | 107.83244 | 34947 ft | 459 kts | 359° |
| 2026-05-05 15:14 | 13.50898 | 107.83377 | 34952 ft | 458 kts | 359° |
| 2026-05-05 15:14 | 13.57290 | 107.83510 | 34959 ft | 458 kts | 359° |
| 2026-05-05 15:15 | 13.63700 | 107.83643 | 34966 ft | 458 kts | 359° |
| 2026-05-05 15:15 | 13.70143 | 107.83778 | 34976 ft | 458 kts | 359° |
| 2026-05-05 15:16 | 13.76530 | 107.83910 | 34984 ft | 459 kts | 359° |
| 2026-05-05 15:16 | 13.82961 | 107.84043 | 34992 ft | 459 kts | 359° |
| 2026-05-05 15:17 | 13.89381 | 107.84176 | 34996 ft | 459 kts | 359° |
| 2026-05-05 15:17 | 13.95775 | 107.84307 | 35001 ft | 459 kts | 359° |
| 2026-05-05 15:18 | 14.02211 | 107.84405 | 35001 ft | 458 kts | 358° |
| 2026-05-05 15:18 | 14.08603 | 107.84371 | 35007 ft | 458 kts | 358° |
| 2026-05-05 15:19 | 14.15025 | 107.84388 | 35017 ft | 458 kts | 358° |
| 2026-05-05 15:19 | 14.21419 | 107.84386 | 35033 ft | 458 kts | 358° |
| 2026-05-05 15:20 | 14.27814 | 107.84383 | 35039 ft | 458 kts | 358° |
| 2026-05-05 15:20 | 14.34184 | 107.84384 | 35034 ft | 458 kts | 358° |
| 2026-05-05 15:21 | 14.40591 | 107.84386 | 35042 ft | 458 kts | 358° |
| 2026-05-05 15:21 | 14.46974 | 107.84385 | 35046 ft | 457 kts | 358° |
| 2026-05-05 15:22 | 14.53340 | 107.84386 | 35051 ft | 458 kts | 358° |
| 2026-05-05 15:22 | 14.59725 | 107.84386 | 35061 ft | 458 kts | 358° |
| 2026-05-05 15:23 | 14.66141 | 107.84386 | 35070 ft | 458 kts | 358° |
| 2026-05-05 15:23 | 14.72526 | 107.84387 | 35075 ft | 458 kts | 358° |
| 2026-05-05 15:24 | 14.78915 | 107.84387 | 35087 ft | 459 kts | 358° |
| 2026-05-05 15:24 | 14.85315 | 107.84391 | 35111 ft | 459 kts | 358° |
| 2026-05-05 15:25 | 14.91767 | 107.84531 | 35139 ft | 459 kts | 360° |
| 2026-05-05 15:25 | 14.98198 | 107.84782 | 35161 ft | 459 kts | 360° |
| 2026-05-05 15:26 | 15.04619 | 107.85030 | 35173 ft | 459 kts | 360° |
| 2026-05-05 15:26 | 15.11016 | 107.85276 | 35155 ft | 459 kts | 360° |
| 2026-05-05 15:27 | 15.17482 | 107.85522 | 35130 ft | 460 kts | 360° |
| 2026-05-05 15:27 | 15.23913 | 107.85766 | 35106 ft | 460 kts | 360° |
| 2026-05-05 15:28 | 15.30342 | 107.86011 | 35085 ft | 460 kts | 360° |
| 2026-05-05 15:28 | 15.36745 | 107.86255 | 35064 ft | 459 kts | 360° |
| 2026-05-05 15:29 | 15.43177 | 107.86500 | 35041 ft | 459 kts | 360° |
| 2026-05-05 15:29 | 15.49585 | 107.86745 | 35016 ft | 459 kts | 360° |
| 2026-05-05 15:30 | 15.55975 | 107.86989 | 35004 ft | 459 kts | 359° |
| 2026-05-05 15:30 | 15.62433 | 107.87232 | 34992 ft | 460 kts | 359° |
| 2026-05-05 15:31 | 15.68825 | 107.87476 | 34987 ft | 460 kts | 360° |
| 2026-05-05 15:31 | 15.75279 | 107.87722 | 34979 ft | 459 kts | 360° |
| 2026-05-05 15:32 | 15.81664 | 107.87965 | 34985 ft | 459 kts | 360° |
| 2026-05-05 15:32 | 15.88055 | 107.88162 | 34996 ft | 458 kts | 357° |
| 2026-05-05 15:33 | 15.94407 | 107.87627 | 35005 ft | 455 kts | 348° |
| 2026-05-05 15:33 | 16.00553 | 107.86133 | 35022 ft | 453 kts | 340° |
| 2026-05-05 15:34 | 16.06428 | 107.83720 | 35020 ft | 450 kts | 333° |
| 2026-05-05 15:34 | 16.12092 | 107.80931 | 34998 ft | 450 kts | 332° |
| 2026-05-05 15:35 | 16.17801 | 107.78103 | 34996 ft | 450 kts | 332° |
| 2026-05-05 15:35 | 16.23443 | 107.75318 | 34990 ft | 450 kts | 332° |
| 2026-05-05 15:36 | 16.29127 | 107.72516 | 34981 ft | 450 kts | 332° |
| 2026-05-05 15:36 | 16.34798 | 107.69719 | 34963 ft | 450 kts | 332° |
| 2026-05-05 15:37 | 16.40478 | 107.66914 | 34949 ft | 450 kts | 332° |
| 2026-05-05 15:37 | 16.46161 | 107.64105 | 34941 ft | 450 kts | 332° |
| 2026-05-05 15:38 | 16.51808 | 107.61326 | 34921 ft | 450 kts | 332° |
| 2026-05-05 15:38 | 16.57493 | 107.58542 | 34921 ft | 450 kts | 332° |
| 2026-05-05 15:39 | 16.63176 | 107.55753 | 34918 ft | 450 kts | 332° |
| 2026-05-05 15:39 | 16.68837 | 107.52969 | 34921 ft | 450 kts | 332° |
| 2026-05-05 15:40 | 16.74539 | 107.50163 | 34913 ft | 450 kts | 332° |
| 2026-05-05 15:40 | 16.80205 | 107.47369 | 34906 ft | 449 kts | 332° |
| 2026-05-05 15:41 | 16.85868 | 107.44576 | 34903 ft | 449 kts | 332° |
| 2026-05-05 15:41 | 16.91566 | 107.41766 | 34905 ft | 450 kts | 332° |
| 2026-05-05 15:42 | 16.97254 | 107.38969 | 34898 ft | 449 kts | 332° |
| 2026-05-05 15:42 | 17.02900 | 107.36187 | 34896 ft | 449 kts | 332° |
| 2026-05-05 15:43 | 17.08578 | 107.33344 | 34892 ft | 449 kts | 332° |
| 2026-05-05 15:43 | 17.14217 | 107.30505 | 34895 ft | 449 kts | 332° |
| 2026-05-05 15:44 | 17.19836 | 107.27673 | 34890 ft | 449 kts | 332° |
| 2026-05-05 15:44 | 17.25504 | 107.24815 | 34895 ft | 449 kts | 332° |
| 2026-05-05 15:45 | 17.31125 | 107.21980 | 34890 ft | 449 kts | 332° |
| 2026-05-05 15:45 | 17.36775 | 107.19128 | 34895 ft | 448 kts | 332° |
| 2026-05-05 15:46 | 17.42407 | 107.16282 | 34889 ft | 448 kts | 332° |
| 2026-05-05 15:46 | 17.48050 | 107.13429 | 34891 ft | 448 kts | 332° |
| 2026-05-05 15:47 | 17.53694 | 107.10574 | 34891 ft | 448 kts | 332° |
| 2026-05-05 15:47 | 17.59312 | 107.07730 | 34893 ft | 448 kts | 332° |
| 2026-05-05 15:48 | 17.64914 | 107.04891 | 34889 ft | 447 kts | 332° |
| 2026-05-05 15:48 | 17.70533 | 107.02041 | 34892 ft | 447 kts | 332° |
| 2026-05-05 15:49 | 17.76167 | 106.99180 | 34891 ft | 447 kts | 332° |
| 2026-05-05 15:49 | 17.81777 | 106.96328 | 34891 ft | 447 kts | 332° |
| 2026-05-05 15:50 | 17.87392 | 106.93473 | 34891 ft | 448 kts | 332° |
| 2026-05-05 15:50 | 17.93006 | 106.90643 | 34892 ft | 448 kts | 332° |
| 2026-05-05 15:51 | 17.98652 | 106.87807 | 34898 ft | 448 kts | 332° |
| 2026-05-05 15:51 | 18.04278 | 106.84975 | 34898 ft | 447 kts | 332° |
| 2026-05-05 15:52 | 18.09859 | 106.82160 | 34898 ft | 447 kts | 332° |
| 2026-05-05 15:52 | 18.15535 | 106.79293 | 34890 ft | 446 kts | 332° |
| 2026-05-05 15:53 | 18.21164 | 106.76447 | 34885 ft | 446 kts | 332° |
| 2026-05-05 15:53 | 18.26767 | 106.73613 | 34883 ft | 446 kts | 332° |
| 2026-05-05 15:54 | 18.32372 | 106.70776 | 34881 ft | 445 kts | 332° |
| 2026-05-05 15:54 | 18.37990 | 106.67928 | 34881 ft | 445 kts | 332° |
| 2026-05-05 15:55 | 18.43572 | 106.65096 | 34879 ft | 445 kts | 332° |
| 2026-05-05 15:55 | 18.49173 | 106.62251 | 34880 ft | 445 kts | 332° |
| 2026-05-05 15:56 | 18.54808 | 106.59389 | 34877 ft | 445 kts | 332° |
| 2026-05-05 15:56 | 18.60424 | 106.56556 | 34876 ft | 445 kts | 333° |
| 2026-05-05 15:57 | 18.66008 | 106.53745 | 34878 ft | 445 kts | 333° |
| 2026-05-05 15:57 | 18.71585 | 106.50932 | 34879 ft | 444 kts | 333° |
| 2026-05-05 15:58 | 18.77185 | 106.48100 | 34881 ft | 444 kts | 333° |
| 2026-05-05 15:58 | 18.82766 | 106.45274 | 34887 ft | 443 kts | 333° |
| 2026-05-05 15:59 | 18.88352 | 106.42444 | 34890 ft | 443 kts | 333° |
| 2026-05-05 15:59 | 18.93933 | 106.39629 | 34893 ft | 443 kts | 333° |
| 2026-05-05 16:00 | 18.99505 | 106.36834 | 34894 ft | 442 kts | 333° |
| 2026-05-05 16:00 | 19.05124 | 106.34007 | 34894 ft | 443 kts | 332° |
| 2026-05-05 16:01 | 19.10705 | 106.31194 | 34895 ft | 442 kts | 332° |
| 2026-05-05 16:01 | 19.16324 | 106.28358 | 34894 ft | 442 kts | 332° |
| 2026-05-05 16:02 | 19.21866 | 106.25558 | 34893 ft | 442 kts | 332° |
| 2026-05-05 16:02 | 19.27440 | 106.22740 | 34894 ft | 442 kts | 332° |
| 2026-05-05 16:03 | 19.33031 | 106.19910 | 34894 ft | 442 kts | 332° |
| 2026-05-05 16:03 | 19.38582 | 106.17099 | 34893 ft | 442 kts | 332° |
| 2026-05-05 16:04 | 19.44125 | 106.14287 | 34894 ft | 441 kts | 332° |
| 2026-05-05 16:04 | 19.49679 | 106.11468 | 34894 ft | 441 kts | 332° |
| 2026-05-05 16:05 | 19.55224 | 106.08680 | 34894 ft | 442 kts | 333° |
| 2026-05-05 16:05 | 19.60829 | 106.05878 | 34891 ft | 441 kts | 333° |
| 2026-05-05 16:05 | 19.63603 | 106.04489 | 34356 ft | 444 kts | 333° |
| 2026-05-05 16:06 | 19.66429 | 106.03072 | 33618 ft | 445 kts | 333° |
| 2026-05-05 16:06 | 19.69225 | 106.01668 | 32881 ft | 445 kts | 333° |
| 2026-05-05 16:06 | 19.72015 | 106.00266 | 32176 ft | 445 kts | 333° |
| 2026-05-05 16:06 | 19.74811 | 105.98860 | 31468 ft | 445 kts | 333° |
| 2026-05-05 16:07 | 19.77649 | 105.97431 | 30730 ft | 446 kts | 333° |
| 2026-05-05 16:07 | 19.80442 | 105.96024 | 29982 ft | 446 kts | 333° |
| 2026-05-05 16:07 | 19.83248 | 105.94612 | 29214 ft | 447 kts | 333° |
| 2026-05-05 16:07 | 19.86069 | 105.93191 | 28435 ft | 447 kts | 333° |
| 2026-05-05 16:08 | 19.88876 | 105.91778 | 27639 ft | 448 kts | 333° |
| 2026-05-05 16:08 | 19.91702 | 105.90353 | 26797 ft | 449 kts | 333° |
| 2026-05-05 16:08 | 19.94525 | 105.88929 | 25929 ft | 451 kts | 333° |
| 2026-05-05 16:08 | 19.97380 | 105.87488 | 25022 ft | 453 kts | 333° |
| 2026-05-05 16:09 | 20.00245 | 105.86041 | 24252 ft | 452 kts | 333° |
| 2026-05-05 16:09 | 20.03072 | 105.84615 | 23583 ft | 448 kts | 333° |
| 2026-05-05 16:09 | 20.05899 | 105.83187 | 22948 ft | 444 kts | 333° |
| 2026-05-05 16:09 | 20.08690 | 105.81776 | 22290 ft | 442 kts | 333° |
| 2026-05-05 16:10 | 20.11488 | 105.80361 | 21695 ft | 438 kts | 333° |
| 2026-05-05 16:10 | 20.14250 | 105.78964 | 21114 ft | 434 kts | 333° |
| 2026-05-05 16:10 | 20.16951 | 105.77596 | 20555 ft | 430 kts | 332° |
| 2026-05-05 16:10 | 20.19692 | 105.76209 | 19980 ft | 426 kts | 332° |
| 2026-05-05 16:11 | 20.22374 | 105.74849 | 19411 ft | 423 kts | 332° |
| 2026-05-05 16:11 | 20.30254 | 105.70849 | 17734 ft | 413 kts | 333° |
| 2026-05-05 16:12 | 20.32855 | 105.69527 | 17179 ft | 410 kts | 333° |
| 2026-05-05 16:12 | 20.37978 | 105.66927 | 16055 ft | 405 kts | 333° |
| 2026-05-05 16:13 | 20.45943 | 105.64214 | 14642 ft | 403 kts | 353° |
| 2026-05-05 16:13 | 20.48776 | 105.64098 | 14669 ft | 407 kts | 357° |
| 2026-05-05 16:13 | 20.51638 | 105.64069 | 14695 ft | 408 kts | 358° |
| 2026-05-05 16:14 | 20.57307 | 105.64035 | 14805 ft | 400 kts | 358° |
| 2026-05-05 16:14 | 20.62666 | 105.63989 | 14848 ft | 362 kts | 357° |
| 2026-05-05 16:15 | 20.67344 | 105.63155 | 14854 ft | 319 kts | 324° |
| 2026-05-05 16:15 | 20.69594 | 105.59379 | 14903 ft | 306 kts | 283° |
| 2026-05-05 16:16 | 20.70586 | 105.54936 | 14911 ft | 306 kts | 283° |
| 2026-05-05 16:16 | 20.71646 | 105.50479 | 14911 ft | 306 kts | 283° |
| 2026-05-05 16:17 | 20.72958 | 105.46146 | 14910 ft | 309 kts | 297° |
| 2026-05-05 16:17 | 20.74224 | 105.44264 | 14910 ft | 310 kts | 310° |
| 2026-05-05 16:18 | 20.77270 | 105.40959 | 14917 ft | 311 kts | 313° |
| 2026-05-05 16:18 | 20.78815 | 105.39310 | 14917 ft | 311 kts | 313° |
| 2026-05-05 16:18 | 20.81885 | 105.36002 | 14918 ft | 310 kts | 313° |
| 2026-05-05 16:19 | 20.83407 | 105.34356 | 14920 ft | 310 kts | 313° |
| 2026-05-05 16:19 | 20.85091 | 105.32891 | 14911 ft | 313 kts | 326° |
| 2026-05-05 16:19 | 20.89232 | 105.31200 | 14349 ft | 319 kts | 342° |
| 2026-05-05 16:20 | 20.93508 | 105.29939 | 13544 ft | 318 kts | 342° |
| 2026-05-05 16:20 | 20.96095 | 105.29163 | 13176 ft | 312 kts | 342° |
| 2026-05-05 16:21 | 21.00120 | 105.29392 | 12896 ft | 294 kts | 33° |
| 2026-05-05 16:22 | 21.01830 | 105.34393 | 12008 ft | 288 kts | 94° |
| 2026-05-05 16:22 | 21.01705 | 105.38670 | 11373 ft | 284 kts | 90° |
| 2026-05-05 16:23 | 21.01763 | 105.42864 | 10824 ft | 277 kts | 89° |
| 2026-05-05 16:23 | 21.01810 | 105.44924 | 10493 ft | 276 kts | 89° |
| 2026-05-05 16:23 | 21.01914 | 105.49021 | 9832 ft | 274 kts | 88° |
| 2026-05-05 16:24 | 21.01965 | 105.51054 | 9352 ft | 277 kts | 88° |
| 2026-05-05 16:24 | 21.02017 | 105.53134 | 8699 ft | 284 kts | 88° |
| 2026-05-05 16:24 | 21.02120 | 105.57344 | 7999 ft | 278 kts | 89° |
| 2026-05-05 16:25 | 21.02172 | 105.59388 | 7735 ft | 273 kts | 87° |
| 2026-05-05 16:25 | 21.03905 | 105.62701 | 7113 ft | 261 kts | 21° |
| 2026-05-05 16:25 | 21.05644 | 105.62968 | 6816 ft | 250 kts | 345° |
| 2026-05-05 16:26 | 21.08875 | 105.61710 | 6192 ft | 246 kts | 338° |
| 2026-05-05 16:26 | 21.12148 | 105.60570 | 5553 ft | 246 kts | 341° |
| 2026-05-05 16:27 | 21.13780 | 105.60041 | 5234 ft | 245 kts | 341° |
| 2026-05-05 16:27 | 21.15435 | 105.59512 | 4922 ft | 245 kts | 342° |
| 2026-05-05 16:27 | 21.17085 | 105.59019 | 4594 ft | 245 kts | 349° |
| 2026-05-05 16:27 | 21.18777 | 105.59119 | 4251 ft | 245 kts | 18° |
| 2026-05-05 16:28 | 21.20382 | 105.59751 | 3963 ft | 243 kts | 22° |
| 2026-05-05 16:28 | 21.21755 | 105.60320 | 3747 ft | 241 kts | 22° |
| 2026-05-05 16:28 | 21.23318 | 105.60963 | 3506 ft | 237 kts | 22° |
| 2026-05-05 16:28 | 21.24868 | 105.61595 | 3260 ft | 233 kts | 24° |
| 2026-05-05 16:29 | 21.26163 | 105.62552 | 2971 ft | 225 kts | 56° |
| 2026-05-05 16:29 | 21.26715 | 105.64041 | 2801 ft | 207 kts | 88° |
| 2026-05-05 16:29 | 21.26547 | 105.65517 | 2579 ft | 195 kts | 106° |
| 2026-05-05 16:29 | 21.26151 | 105.66901 | 2330 ft | 188 kts | 110° |
| 2026-05-05 16:30 | 21.25742 | 105.68201 | 2093 ft | 181 kts | 110° |
| 2026-05-05 16:30 | 21.25367 | 105.69437 | 1855 ft | 169 kts | 109° |
| 2026-05-05 16:30 | 21.25031 | 105.70587 | 1663 ft | 152 kts | 109° |
| 2026-05-05 16:30 | 21.24736 | 105.71613 | 1450 ft | 141 kts | 109° |
| 2026-05-05 16:31 | 21.24443 | 105.72628 | 1278 ft | 140 kts | 109° |
| 2026-05-05 16:31 | 21.24154 | 105.73629 | 1105 ft | 140 kts | 109° |
| 2026-05-05 16:31 | 21.23867 | 105.74626 | 928 ft | 139 kts | 109° |
| 2026-05-05 16:31 | 21.23587 | 105.75606 | 738 ft | 138 kts | 108° |
| 2026-05-05 16:32 | 21.23302 | 105.76592 | 560 ft | 138 kts | 110° |
| 2026-05-05 16:32 | 21.23014 | 105.77567 | 388 ft | 137 kts | 109° |
| 2026-05-05 16:32 | 21.22731 | 105.78558 | 225 ft | 137 kts | 109° |
| 2026-05-05 16:32 | 21.22448 | 105.79535 | 60 ft | 135 kts | 109° |
| 2026-05-05 16:33 | 21.22200 | 105.80387 | 51 ft | 98 kts | 108° |
| 2026-05-05 16:33 | 21.22039 | 105.80931 | 51 ft | 59 kts | 110° |
| 2026-05-05 16:33 | 21.21931 | 105.81245 | 51 ft | 26 kts | 121° |
| 2026-05-05 16:33 | 21.21811 | 105.81386 | 51 ft | 24 kts | 135° |
| 2026-05-05 16:34 | 21.21690 | 105.81505 | 51 ft | 22 kts | 137° |
| 2026-05-05 16:34 | 21.21559 | 105.81559 | 51 ft | 20 kts | 196° |
| 2026-05-05 16:34 | 21.21478 | 105.81477 | 51 ft | 16 kts | 278° |
| 2026-05-05 16:34 | 21.21510 | 105.81362 | 51 ft | 16 kts | 289° |
| 2026-05-05 16:35 | 21.21545 | 105.81246 | 52 ft | 15 kts | 287° |
| 2026-05-05 16:35 | 21.21576 | 105.81135 | 53 ft | 15 kts | 287° |
| 2026-05-05 16:35 | 21.21609 | 105.81019 | 52 ft | 16 kts | 287° |
| 2026-05-05 16:35 | 21.21645 | 105.80901 | 52 ft | 17 kts | 287° |
| 2026-05-05 16:36 | 21.21677 | 105.80775 | 51 ft | 17 kts | 286° |
| 2026-05-05 16:36 | 21.21658 | 105.80666 | 51 ft | 15 kts | 208° |
| 2026-05-05 16:36 | 21.21632 | 105.80591 | 52 ft | 10 kts | 259° |
| 2026-05-05 16:36 | 21.21606 | 105.80519 | 53 ft | 5 kts | 245° |
| 2026-05-05 16:37 | 21.21596 | 105.80497 | 53 ft | 0 kts | 244° |